createdAt,value
2022-09-11T00:01:29.218Z,14.25
2022-09-11T00:05:31.132Z,14.30
2022-09-11T00:09:32.564Z,14.34
2022-09-11T00:13:34.868Z,14.08
2022-09-11T00:17:37.604Z,14.28
2022-09-11T00:21:39.457Z,14.20
2022-09-11T00:25:40.864Z,14.13
2022-09-11T00:29:42.265Z,14.15
2022-09-11T00:33:44.627Z,13.81
2022-09-11T00:37:46.070Z,14.02
2022-09-11T00:41:47.853Z,14.13
2022-09-11T00:45:57.637Z,13.85
2022-09-11T00:50:12.640Z,14.00
2022-09-11T00:54:21.038Z,14.23
2022-09-11T00:58:27.042Z,14.06
2022-09-11T01:02:31.508Z,13.97
2022-09-11T01:06:33.426Z,13.95
2022-09-11T01:11:20.632Z,13.84
2022-09-11T01:15:36.136Z,13.77
2022-09-11T01:20:00.846Z,13.63
2022-09-11T01:24:17.362Z,13.61
2022-09-11T01:28:26.776Z,13.80
2022-09-11T01:32:50.368Z,13.67
2022-09-11T01:36:57.464Z,13.72
2022-09-11T01:41:08.064Z,13.87
2022-09-11T01:45:12.689Z,13.99
2022-09-11T01:49:17.159Z,13.86
2022-09-11T01:53:22.504Z,13.77
2022-09-11T01:57:48.078Z,13.51
2022-09-11T02:01:54.876Z,13.66
2022-09-11T02:06:13.665Z,13.65
2022-09-11T02:10:20.692Z,13.55
2022-09-11T02:14:38.491Z,13.36
2022-09-11T02:19:04.101Z,13.53
2022-09-11T02:23:07.077Z,13.62
2022-09-11T02:27:17.780Z,13.77
2022-09-11T02:31:20.055Z,13.56
2022-09-11T02:35:25.921Z,13.52
2022-09-11T02:39:45.452Z,13.63
2022-09-11T02:44:07.199Z,13.61
2022-09-11T02:48:20.927Z,13.49
2022-09-11T02:52:49.377Z,13.65
2022-09-11T02:57:15.601Z,13.52
2022-09-11T03:01:17.691Z,13.37
2022-09-11T03:05:19.696Z,13.32
2022-09-11T03:09:21.794Z,13.33
2022-09-11T03:13:23.243Z,13.35
2022-09-11T03:17:25.424Z,13.44
2022-09-11T03:21:26.981Z,13.44
2022-09-11T03:25:28.447Z,13.09
2022-09-11T03:29:31.669Z,12.91
2022-09-11T03:33:33.168Z,12.87
2022-09-11T03:37:34.645Z,12.73
2022-09-11T03:41:36.070Z,12.93
2022-09-11T03:45:37.508Z,12.88
2022-09-11T03:49:39.239Z,13.14
2022-09-11T03:53:42.143Z,13.29
2022-09-11T03:57:43.761Z,13.36
2022-09-11T04:01:45.320Z,13.39
2022-09-11T04:05:58.051Z,13.50
2022-09-11T04:09:59.448Z,13.58
2022-09-11T04:14:03.375Z,13.77
2022-09-11T04:18:08.587Z,13.65
2022-09-11T04:22:10.062Z,13.44
2022-09-11T04:26:19.719Z,13.47
2022-09-11T04:30:22.311Z,13.31
2022-09-11T04:34:23.769Z,13.23
2022-09-11T04:38:25.229Z,13.16
2022-09-11T04:42:27.048Z,13.23
2022-09-11T04:46:28.562Z,13.32
2022-09-11T04:50:31.449Z,13.45
2022-09-11T04:54:37.050Z,13.27
2022-09-11T04:58:38.476Z,13.25
2022-09-11T05:02:40.655Z,13.42
2022-09-11T05:06:45.303Z,13.25
2022-09-11T05:10:47.418Z,13.45
2022-09-11T05:14:48.844Z,13.45
2022-09-11T05:18:52.560Z,13.21
2022-09-11T05:22:54.005Z,13.56
2022-09-11T05:26:55.435Z,13.70
2022-09-11T05:30:57.987Z,13.59
2022-09-11T05:34:59.630Z,13.69
2022-09-11T05:39:01.217Z,13.89
2022-09-11T05:43:02.627Z,14.01
2022-09-11T05:47:04.742Z,14.00
2022-09-11T05:51:09.586Z,14.05
2022-09-11T05:55:11.042Z,14.11
2022-09-11T05:59:15.831Z,13.86
2022-09-11T06:03:19.164Z,14.04
2022-09-11T06:07:20.603Z,14.07
2022-09-11T06:11:22.403Z,14.17
2022-09-11T06:15:45.531Z,14.28
2022-09-11T06:19:47.342Z,14.30
2022-09-11T06:23:50.804Z,14.20
2022-09-11T06:27:52.243Z,14.36
2022-09-11T06:31:54.187Z,14.40
2022-09-11T06:36:00.520Z,14.32
2022-09-11T06:40:02.323Z,14.38
2022-09-11T06:44:03.740Z,14.34
2022-09-11T06:48:05.136Z,14.55
2022-09-11T06:52:06.505Z,14.57
2022-09-11T06:56:12.808Z,14.91
2022-09-11T07:00:14.494Z,14.92
2022-09-11T07:04:16.616Z,15.17
2022-09-11T07:08:21.792Z,15.05
2022-09-11T07:12:27.053Z,15.06
2022-09-11T07:16:28.468Z,15.23
2022-09-11T07:20:29.901Z,15.17
2022-09-11T07:24:31.793Z,15.23
2022-09-11T07:28:34.435Z,15.17
2022-09-11T07:32:37.469Z,15.17
2022-09-11T07:36:38.865Z,15.08
2022-09-11T07:40:40.230Z,15.24
2022-09-11T07:44:41.593Z,15.05
2022-09-11T07:48:43.156Z,15.38
2022-09-11T07:52:44.625Z,15.48
2022-09-11T07:56:46.060Z,15.72
2022-09-11T08:00:47.591Z,15.70
2022-09-11T08:04:49.151Z,16.16
2022-09-11T08:08:55.860Z,16.09
2022-09-11T08:12:59.764Z,16.65
2022-09-11T08:17:01.586Z,17.00
2022-09-11T08:21:12.566Z,17.25
2022-09-11T08:25:14.266Z,17.67
2022-09-11T08:29:15.779Z,17.53
2022-09-11T08:33:19.293Z,17.73
2022-09-11T08:37:20.773Z,17.56
2022-09-11T08:41:36.487Z,17.22
2022-09-11T08:45:38.133Z,17.03
2022-09-11T08:49:46.196Z,17.26
2022-09-11T08:53:48.379Z,17.30
2022-09-11T08:57:59.538Z,17.39
2022-09-11T09:02:39.041Z,17.39
2022-09-11T09:07:07.779Z,17.68
2022-09-11T09:11:21.489Z,17.39
2022-09-11T09:15:35.921Z,17.17
2022-09-11T09:19:50.408Z,17.73
2022-09-11T09:23:55.121Z,17.97
2022-09-11T09:28:03.144Z,17.97
2022-09-11T09:32:11.168Z,18.11
2022-09-11T09:36:20.880Z,18.52
2022-09-11T09:40:25.346Z,18.62
2022-09-11T09:44:46.323Z,18.70
2022-09-11T09:48:47.760Z,18.21
2022-09-11T09:52:50.016Z,18.77
2022-09-11T09:57:02.468Z,18.82
2022-09-11T10:01:26.286Z,18.94
2022-09-11T10:05:33.262Z,18.70
2022-09-11T10:09:34.680Z,18.92
2022-09-11T10:13:42.590Z,18.87
2022-09-11T10:17:44.013Z,18.87
2022-09-11T10:21:45.370Z,18.90
2022-09-11T10:25:49.872Z,18.85
2022-09-11T10:29:51.353Z,18.38
2022-09-11T10:33:56.947Z,18.05
2022-09-11T10:38:19.691Z,18.38
2022-09-11T10:42:27.825Z,18.81
2022-09-11T10:46:41.907Z,18.96
2022-09-11T10:50:44.911Z,19.08
2022-09-11T10:54:57.315Z,18.90
2022-09-11T10:59:05.425Z,19.71
2022-09-11T11:03:17.139Z,19.10
2022-09-11T11:08:03.249Z,19.03
2022-09-11T11:12:32.537Z,19.29
2022-09-11T11:16:39.627Z,19.90
2022-09-11T11:21:03.238Z,20.79
2022-09-11T11:25:07.707Z,19.39
2022-09-11T11:29:40.250Z,18.83
2022-09-11T11:34:14.300Z,18.23
2022-09-11T11:38:32.799Z,18.27
2022-09-11T11:42:39.943Z,18.79
2022-09-11T11:46:48.812Z,18.65
2022-09-11T11:50:59.037Z,18.25
2022-09-11T11:55:01.132Z,18.46
2022-09-11T11:59:07.090Z,18.79
2022-09-11T12:03:23.794Z,17.85
2022-09-11T12:07:29.131Z,17.84
2022-09-11T12:11:32.342Z,17.95
2022-09-11T12:15:35.773Z,18.47
2022-09-11T12:19:37.189Z,18.90
2022-09-11T12:23:47.209Z,18.46
2022-09-11T12:27:55.718Z,18.81
2022-09-11T12:32:00.266Z,18.69
2022-09-11T12:36:05.299Z,18.94
2022-09-11T12:40:18.706Z,19.20
2022-09-11T12:44:45.717Z,18.69
2022-09-11T12:49:18.068Z,19.04
2022-09-11T12:53:21.300Z,19.15
2022-09-11T12:57:29.036Z,19.15
2022-09-11T13:01:37.812Z,18.80
2022-09-11T13:05:40.370Z,18.78
2022-09-11T13:09:48.700Z,19.04
2022-09-11T13:13:50.133Z,18.76
2022-09-11T13:17:51.690Z,18.26
2022-09-11T13:21:57.064Z,18.39
2022-09-11T13:25:58.594Z,18.36
2022-09-11T13:30:01.354Z,18.03
2022-09-11T13:34:06.722Z,17.95
2022-09-11T13:38:18.196Z,17.60
2022-09-11T13:42:23.139Z,17.81
2022-09-11T13:46:27.927Z,17.74
2022-09-11T13:50:29.499Z,17.58
2022-09-11T13:54:34.820Z,17.75
2022-09-11T13:58:37.949Z,18.06
2022-09-11T14:02:49.970Z,18.84
2022-09-11T14:06:51.453Z,19.85
2022-09-11T14:10:56.736Z,20.18
2022-09-11T14:15:02.712Z,20.97
2022-09-11T14:19:08.873Z,21.01
2022-09-11T14:23:17.357Z,21.61
2022-09-11T14:27:31.452Z,21.08
2022-09-11T14:31:41.256Z,20.58
2022-09-11T14:35:44.715Z,20.98
2022-09-11T14:39:50.176Z,21.36
2022-09-11T14:43:51.851Z,20.36
2022-09-11T14:47:53.578Z,19.38
2022-09-11T14:51:58.464Z,19.56
2022-09-11T14:56:01.441Z,19.67
2022-09-11T15:00:03.286Z,19.38
2022-09-11T15:04:04.730Z,19.62
2022-09-11T15:08:06.181Z,19.39
2022-09-11T15:12:09.363Z,18.86
2022-09-11T15:16:11.931Z,18.73
2022-09-11T15:20:13.382Z,18.47
2022-09-11T15:24:14.886Z,18.45
2022-09-11T15:28:16.339Z,18.99
2022-09-11T15:32:17.762Z,19.37
2022-09-11T15:36:21.321Z,19.14
2022-09-11T15:40:23.471Z,19.11
2022-09-11T15:44:27.388Z,18.89
2022-09-11T15:48:30.985Z,18.83
2022-09-11T15:52:34.348Z,19.01
2022-09-11T15:56:35.969Z,18.61
2022-09-11T16:00:37.492Z,18.49
2022-09-11T16:04:39.087Z,18.46
2022-09-11T16:08:40.931Z,18.39
2022-09-11T16:12:42.475Z,18.33
2022-09-11T16:16:47.072Z,18.20
2022-09-11T16:20:56.564Z,18.24
2022-09-11T16:24:59.343Z,18.05
2022-09-11T16:29:02.554Z,18.03
2022-09-11T16:33:04.135Z,18.02
2022-09-11T16:37:05.842Z,17.96
2022-09-11T16:41:12.486Z,17.89
2022-09-11T16:45:13.938Z,17.86
2022-09-11T16:49:17.882Z,17.63
2022-09-11T16:53:20.659Z,17.79
2022-09-11T16:57:22.155Z,17.73
2022-09-11T17:01:26.106Z,17.60
2022-09-11T17:05:27.559Z,17.58
2022-09-11T17:09:28.983Z,17.44
2022-09-11T17:13:31.322Z,17.53
2022-09-11T17:17:35.296Z,17.46
2022-09-11T17:21:37.856Z,17.41
2022-09-11T17:25:40.703Z,17.53
2022-09-11T17:29:44.640Z,17.10
2022-09-11T17:33:47.487Z,16.86
2022-09-11T17:37:48.959Z,17.03
2022-09-11T17:41:50.433Z,17.08
2022-09-11T17:45:52.300Z,17.21
2022-09-11T17:49:53.777Z,17.31
2022-09-11T17:53:57.274Z,17.32
2022-09-11T17:57:58.847Z,17.17
2022-09-11T18:02:02.112Z,17.00
2022-09-11T18:06:11.122Z,17.10
2022-09-11T18:10:12.848Z,16.73
2022-09-11T18:14:15.432Z,16.69
2022-09-11T18:18:17.306Z,16.57
2022-09-11T18:22:19.910Z,16.60
2022-09-11T18:26:25.758Z,16.02
2022-09-11T18:30:27.262Z,16.41
2022-09-11T18:34:28.821Z,15.69
2022-09-11T18:38:33.065Z,15.84
2022-09-11T18:42:34.832Z,16.02
2022-09-11T18:46:37.709Z,15.44
2022-09-11T18:50:39.355Z,15.31
2022-09-11T18:54:40.851Z,15.52
2022-09-11T18:58:42.268Z,15.40
2022-09-11T19:02:47.731Z,15.48
2022-09-11T19:06:49.182Z,15.54
2022-09-11T19:10:50.572Z,15.43
2022-09-11T19:14:52.411Z,15.18
2022-09-11T19:18:53.943Z,15.19
2022-09-11T19:22:59.683Z,15.03
2022-09-11T19:27:03.952Z,15.08
2022-09-11T19:31:06.223Z,15.01
2022-09-11T19:35:07.708Z,14.86
2022-09-11T19:39:10.267Z,14.89
2022-09-11T19:43:12.138Z,14.78
2022-09-11T19:47:13.623Z,14.60
2022-09-11T19:51:23.232Z,14.50
2022-09-11T19:55:26.076Z,14.42
2022-09-11T19:59:27.798Z,14.34
2022-09-11T20:03:29.354Z,14.27
2022-09-11T20:07:30.931Z,14.27
2022-09-11T20:11:34.702Z,14.17
2022-09-11T20:15:37.302Z,14.19
2022-09-11T20:19:40.644Z,14.20
2022-09-11T20:23:43.657Z,14.16
2022-09-11T20:27:45.015Z,14.17
2022-09-11T20:31:49.309Z,14.12
2022-09-11T20:35:51.159Z,14.13
2022-09-11T20:39:52.615Z,13.99
2022-09-11T20:43:54.352Z,14.01
2022-09-11T20:47:55.724Z,13.95
2022-09-11T20:51:57.121Z,13.80
2022-09-11T20:56:04.182Z,13.86
2022-09-11T21:00:06.505Z,13.80
2022-09-11T21:04:07.943Z,13.71
2022-09-11T21:08:09.328Z,13.54
2022-09-11T21:12:10.752Z,13.72
2022-09-11T21:16:14.531Z,13.71
2022-09-11T21:20:15.970Z,13.72
2022-09-11T21:24:17.352Z,13.73
2022-09-11T21:28:18.723Z,13.57
2022-09-11T21:32:20.195Z,13.66
2022-09-11T21:36:21.617Z,13.63
2022-09-11T21:40:23.095Z,13.54
2022-09-11T21:44:24.503Z,13.72
2022-09-11T21:48:26.012Z,13.78
2022-09-11T21:52:29.278Z,13.71
2022-09-11T21:56:33.139Z,13.85
2022-09-11T22:00:40.791Z,13.77
2022-09-11T22:04:44.304Z,13.98
2022-09-11T22:08:47.114Z,14.15
2022-09-11T22:12:48.987Z,14.36
2022-09-11T22:16:50.553Z,14.37
2022-09-11T22:20:51.941Z,14.49
2022-09-11T22:24:53.551Z,14.40
2022-09-11T22:28:54.922Z,14.57
2022-09-11T22:32:56.814Z,14.69
2022-09-11T22:36:58.174Z,14.44
2022-09-11T22:40:59.533Z,14.64
2022-09-11T22:45:00.964Z,14.40
2022-09-11T22:49:03.526Z,14.83
2022-09-11T22:53:04.874Z,14.23
2022-09-11T22:57:06.252Z,14.13
2022-09-11T23:01:10.180Z,14.69
2022-09-11T23:05:29.965Z,15.00
2022-09-11T23:09:31.342Z,14.74
2022-09-11T23:13:33.968Z,14.94
2022-09-11T23:17:35.396Z,14.64
2022-09-11T23:21:36.804Z,14.90
2022-09-11T23:25:42.127Z,14.90
2022-09-11T23:29:43.498Z,14.83
2022-09-11T23:33:45.259Z,14.77
2022-09-11T23:37:46.844Z,14.66
2022-09-11T23:41:48.241Z,14.50
2022-09-11T23:45:49.752Z,14.37
2022-09-11T23:49:51.163Z,14.05
2022-09-11T23:53:52.819Z,14.00
2022-09-11T23:57:55.415Z,14.00
